Time;durP1;ratioP1;P1;durP2;ratioP2;P2;SDS_P1;SDS_P2;PMS_P1;PMS_P2;Temp;Humidity;BMP_temperature;BMP_pressure;BME280_temperature;BME280_humidity;BME280_pressure;Samples;Min_cycle;Max_cycle;Signal;HPM_P1;HPM_P2
2023/04/27 00:01:06;;;;;;;8.25;5.50;;;;;;;;;;5054396;28;20429;-81
2023/04/27 00:03:33;;;;;;;8.23;5.20;;;;;;;;;;5054461;28;20420;-81
2023/04/27 00:05:59;;;;;;;10.93;5.70;;;;;;;;;;5054849;28;20451;-81
2023/04/27 00:08:25;;;;;;;9.50;5.03;;;;;;;;;;5052231;28;20398;-81
2023/04/27 00:10:53;;;;;;;11.30;5.70;;;;;;;;;;5054825;28;20891;-81
2023/04/27 00:13:21;;;;;;;11.40;5.50;;;;;;;;;;5054132;28;20416;-81
2023/04/27 00:15:47;;;;;;;9.82;5.57;;;;;;;;;;5054625;28;20913;-81
2023/04/27 00:18:14;;;;;;;9.10;5.63;;;;;;;;;;5053588;28;20425;-81
2023/04/27 00:20:41;;;;;;;7.43;5.65;;;;;;;;;;5050259;28;20425;-81
2023/04/27 00:23:08;;;;;;;8.20;5.70;;;;;;;;;;5052840;28;20918;-81
2023/04/27 00:25:35;;;;;;;10.23;5.78;;;;;;;;;;5051164;28;20896;-81
2023/04/27 00:28:02;;;;;;;8.90;5.80;;;;;;;;;;5053413;28;20425;-81
2023/04/27 00:30:29;;;;;;;14.15;6.20;;;;;;;;;;5055407;28;20414;-81
2023/04/27 00:32:56;;;;;;;13.68;6.78;;;;;;;;;;5051691;28;20431;-81
2023/04/27 00:35:23;;;;;;;12.38;5.78;;;;;;;;;;5060841;28;20416;-81
2023/04/27 00:37:49;;;;;;;7.78;6.03;;;;;;;;;;5054215;28;20440;-81
2023/04/27 00:40:16;;;;;;;8.70;6.07;;;;;;;;;;5053364;28;20425;-81
2023/04/27 00:42:42;;;;;;;9.35;5.68;;;;;;;;;;5052549;28;20424;-81
2023/04/27 00:45:12;;;;;;;11.17;6.00;;;;;;;;;;5049557;28;20798;-81
2023/04/27 00:47:40;;;;;;;10.67;5.90;;;;;;;;;;5053304;28;20509;-81
2023/04/27 00:50:09;;;;;;;11.80;7.10;;;;;;;;;;5053722;28;20425;-81
2023/04/27 00:52:36;;;;;;;13.23;6.18;;;;;;;;;;5052660;28;20906;-81
2023/04/27 00:55:03;;;;;;;10.80;6.47;;;;;;;;;;5053596;28;20417;-81
2023/04/27 00:57:31;;;;;;;11.63;6.20;;;;;;;;;;5053471;28;20452;-81
2023/04/27 00:59:59;;;;;;;11.55;6.13;;;;;;;;;;5053560;28;20417;-81
2023/04/27 01:02:27;;;;;;;10.18;6.40;;;;;;;;;;5051519;28;20421;-81
2023/04/27 01:04:54;;;;;;;9.38;5.60;;;;;;;;;;5053192;28;20430;-81
2023/04/27 01:07:24;;;;;;;13.07;7.20;;;;;;;;;;5052603;28;20914;-81
2023/04/27 01:09:53;;;;;;;9.10;6.35;;;;;;;;;;5052899;28;20413;-81
2023/04/27 01:12:20;;;;;;;11.13;6.40;;;;;;;;;;5053981;28;20436;-81
2023/04/27 01:14:46;;;;;;;7.95;5.50;;;;;;;;;;5049375;28;20847;-81
2023/04/27 01:17:12;;;;;;;12.10;6.53;;;;;;;;;;5049370;28;20430;-81
2023/04/27 01:19:40;;;;;;;13.18;6.20;;;;;;;;;;5053081;28;20947;-81
2023/04/27 01:22:07;;;;;;;9.40;6.53;;;;;;;;;;5053772;28;20419;-81
2023/04/27 01:24:35;;;;;;;9.50;6.50;;;;;;;;;;5052768;28;20416;-81
2023/04/27 01:27:02;;;;;;;9.77;6.03;;;;;;;;;;5053094;28;20425;-81
2023/04/27 01:29:30;;;;;;;10.30;6.63;;;;;;;;;;5050869;28;20969;-81
2023/04/27 01:31:57;;;;;;;10.60;6.38;;;;;;;;;;5050912;28;20496;-81
2023/04/27 01:34:23;;;;;;;14.30;7.00;;;;;;;;;;5049099;28;20425;-81
2023/04/27 01:36:49;;;;;;;13.38;6.82;;;;;;;;;;5053186;28;20915;-80
2023/04/27 01:39:16;;;;;;;10.30;6.85;;;;;;;;;;5050902;28;20413;-81
2023/04/27 01:41:44;;;;;;;9.77;7.03;;;;;;;;;;5052765;28;20910;-81
2023/04/27 01:44:11;;;;;;;10.02;6.15;;;;;;;;;;5049764;28;20508;-81
2023/04/27 01:46:37;;;;;;;8.65;6.70;;;;;;;;;;5051741;28;20433;-81
2023/04/27 01:49:03;;;;;;;12.70;6.90;;;;;;;;;;5052088;28;20413;-81
2023/04/27 01:51:31;;;;;;;10.02;6.30;;;;;;;;;;5053461;28;20784;-81
2023/04/27 01:53:59;;;;;;;9.30;6.78;;;;;;;;;;5047028;28;20414;-81
2023/04/27 01:56:26;;;;;;;10.90;6.63;;;;;;;;;;5053302;28;20421;-81
2023/04/27 01:58:54;;;;;;;12.18;7.03;;;;;;;;;;5052288;28;20525;-81
2023/04/27 02:01:21;;;;;;;15.38;6.80;;;;;;;;;;5049720;28;20429;-81
2023/04/27 02:03:48;;;;;;;9.43;6.90;;;;;;;;;;5052452;28;20478;-81
2023/04/27 02:06:14;;;;;;;10.70;6.97;;;;;;;;;;5053441;28;20443;-81
2023/04/27 02:08:40;;;;;;;13.32;6.88;;;;;;;;;;5051384;28;20418;-81
2023/04/27 02:11:07;;;;;;;10.15;6.50;;;;;;;;;;5051362;28;20409;-81
2023/04/27 02:13:33;;;;;;;11.05;6.25;;;;;;;;;;5052219;28;20413;-81
2023/04/27 02:16:03;;;;;;;11.10;6.47;;;;;;;;;;5051471;28;20413;-80
2023/04/27 02:18:31;;;;;;;10.82;7.03;;;;;;;;;;5051896;28;20405;-81
2023/04/27 02:20:57;;;;;;;14.52;6.45;;;;;;;;;;5051529;28;20428;-81
2023/04/27 02:23:25;;;;;;;10.80;6.72;;;;;;;;;;5049368;28;20417;-81
2023/04/27 02:25:51;;;;;;;11.07;7.30;;;;;;;;;;5052210;28;20440;-81
2023/04/27 02:28:17;;;;;;;12.18;6.60;;;;;;;;;;5052086;28;20417;-81
2023/04/27 02:30:44;;;;;;;10.18;6.28;;;;;;;;;;5052723;28;20770;-80
2023/04/27 02:33:11;;;;;;;11.38;7.60;;;;;;;;;;5051716;28;20842;-81
2023/04/27 02:35:38;;;;;;;11.93;7.10;;;;;;;;;;5044051;28;20425;-80
2023/04/27 02:38:05;;;;;;;12.10;6.80;;;;;;;;;;5059113;28;20409;-80
2023/04/27 02:40:32;;;;;;;13.35;7.63;;;;;;;;;;5051827;28;20423;-80
2023/04/27 02:42:59;;;;;;;11.30;6.28;;;;;;;;;;5052201;28;20432;-80
2023/04/27 02:45:29;;;;;;;10.68;7.10;;;;;;;;;;5052876;28;20421;-81
2023/04/27 02:47:56;;;;;;;10.20;7.35;;;;;;;;;;5050685;28;20478;-80
2023/04/27 02:50:24;;;;;;;9.90;6.30;;;;;;;;;;5051884;28;20477;-81
2023/04/27 02:52:50;;;;;;;9.15;7.00;;;;;;;;;;5055179;28;20421;-81
2023/04/27 02:55:16;;;;;;;11.40;6.72;;;;;;;;;;5052090;28;20413;-82
2023/04/27 02:57:43;;;;;;;10.02;7.10;;;;;;;;;;5054993;28;20428;-82
2023/04/27 03:00:10;;;;;;;10.65;7.80;;;;;;;;;;5054065;28;20417;-83
2023/04/27 03:02:36;;;;;;;11.50;7.38;;;;;;;;;;5057176;28;20449;-82
2023/04/27 03:05:04;;;;;;;10.77;7.20;;;;;;;;;;5052765;28;20417;-82
2023/04/27 03:07:31;;;;;;;12.20;7.65;;;;;;;;;;5057246;28;20838;-82
2023/04/27 03:09:58;;;;;;;10.73;7.03;;;;;;;;;;5056837;28;20417;-82
2023/04/27 03:12:24;;;;;;;11.60;7.50;;;;;;;;;;5056686;28;20427;-83
2023/04/27 03:14:52;;;;;;;13.00;7.20;;;;;;;;;;5058016;28;20424;-82
2023/04/27 03:17:18;;;;;;;11.38;7.60;;;;;;;;;;5051377;28;20439;-82
2023/04/27 03:19:47;;;;;;;13.60;7.60;;;;;;;;;;5048249;28;20425;-81
2023/04/27 03:22:13;;;;;;;12.18;7.75;;;;;;;;;;5049321;28;20469;-81
2023/04/27 03:24:41;;;;;;;11.30;8.00;;;;;;;;;;5046366;28;20421;-81
2023/04/27 03:27:07;;;;;;;13.00;8.40;;;;;;;;;;5050584;28;20425;-82
2023/04/27 03:29:34;;;;;;;13.07;8.38;;;;;;;;;;5047257;28;20930;-81
2023/04/27 03:32:00;;;;;;;14.00;8.57;;;;;;;;;;5051451;28;20417;-81
2023/04/27 03:34:27;;;;;;;11.10;7.60;;;;;;;;;;5050870;28;20413;-81
2023/04/27 03:36:53;;;;;;;11.38;7.82;;;;;;;;;;5051864;28;20425;-81
2023/04/27 03:39:19;;;;;;;13.65;8.10;;;;;;;;;;5045203;28;20422;-81
2023/04/27 03:41:47;;;;;;;12.50;8.02;;;;;;;;;;5051025;28;20421;-81
2023/04/27 03:44:14;;;;;;;14.52;8.70;;;;;;;;;;5046862;28;20422;-81
2023/04/27 03:46:40;;;;;;;11.77;7.80;;;;;;;;;;5050999;28;20436;-81
2023/04/27 03:49:07;;;;;;;13.60;8.38;;;;;;;;;;5051023;28;20914;-81
2023/04/27 03:51:33;;;;;;;11.43;8.20;;;;;;;;;;5048980;28;20421;-81
2023/04/27 03:54:00;;;;;;;11.43;7.70;;;;;;;;;;5050823;28;20432;-81
2023/04/27 03:56:27;;;;;;;11.35;8.30;;;;;;;;;;5051168;28;20417;-81
2023/04/27 03:58:54;;;;;;;13.10;8.13;;;;;;;;;;5046014;28;20919;-82
2023/04/27 04:01:21;;;;;;;12.38;8.30;;;;;;;;;;5051487;28;20433;-81
2023/04/27 04:03:47;;;;;;;14.57;8.43;;;;;;;;;;5049537;28;20413;-81
2023/04/27 04:06:13;;;;;;;13.15;8.15;;;;;;;;;;5039781;28;20428;-81
2023/04/27 04:08:40;;;;;;;12.57;8.30;;;;;;;;;;5049939;28;20428;-80
2023/04/27 04:11:06;;;;;;;13.63;8.70;;;;;;;;;;5051948;28;20413;-81
2023/04/27 04:13:34;;;;;;;13.25;8.50;;;;;;;;;;5051179;28;20418;-81
2023/04/27 04:16:03;;;;;;;16.67;8.90;;;;;;;;;;5051399;28;20430;-81
2023/04/27 04:18:29;;;;;;;13.20;8.00;;;;;;;;;;5048980;28;20411;-81
2023/04/27 04:20:56;;;;;;;13.25;7.90;;;;;;;;;;5041900;28;20425;-81
2023/04/27 04:23:23;;;;;;;15.27;8.98;;;;;;;;;;5049704;28;20409;-81
2023/04/27 04:25:49;;;;;;;11.88;7.90;;;;;;;;;;5051697;28;20458;-81
2023/04/27 04:28:16;;;;;;;14.23;7.72;;;;;;;;;;5050810;28;20780;-81
2023/04/27 04:30:43;;;;;;;13.07;8.15;;;;;;;;;;5049072;28;20914;-81
2023/04/27 04:33:10;;;;;;;11.50;8.45;;;;;;;;;;5051558;28;20429;-81
2023/04/27 04:35:38;;;;;;;14.20;8.90;;;;;;;;;;5051483;28;20445;-80
2023/04/27 04:38:04;;;;;;;12.70;7.57;;;;;;;;;;5054499;28;20424;-80
2023/04/27 04:40:31;;;;;;;14.70;8.10;;;;;;;;;;5053839;28;20421;-82
2023/04/27 04:42:57;;;;;;;12.40;8.13;;;;;;;;;;5054683;28;20417;-80
2023/04/27 04:45:25;;;;;;;13.63;8.07;;;;;;;;;;5049896;28;20421;-80
2023/04/27 04:47:53;;;;;;;11.33;8.07;;;;;;;;;;5054942;28;20513;-80
2023/04/27 04:50:21;;;;;;;12.43;8.15;;;;;;;;;;5053464;28;20464;-80
2023/04/27 04:52:47;;;;;;;13.05;7.95;;;;;;;;;;5051972;28;20512;-80
2023/04/27 04:55:14;;;;;;;17.30;8.43;;;;;;;;;;5055240;28;20413;-82
2023/04/27 04:57:40;;;;;;;12.38;8.65;;;;;;;;;;5053391;28;20893;-81
2023/04/27 05:00:10;;;;;;;11.98;8.50;;;;;;;;;;5049533;28;20790;-81
2023/04/27 05:02:38;;;;;;;14.35;8.20;;;;;;;;;;5054152;28;20425;-81
2023/04/27 05:05:05;;;;;;;14.93;8.33;;;;;;;;;;5055341;28;20477;-82
2023/04/27 05:07:33;;;;;;;12.57;8.20;;;;;;;;;;5054689;28;20409;-83
2023/04/27 05:09:59;;;;;;;12.95;8.43;;;;;;;;;;5051066;28;20409;-81
2023/04/27 05:12:26;;;;;;;14.95;9.15;;;;;;;;;;5056140;28;20410;-82
2023/04/27 05:14:52;;;;;;;11.63;8.40;;;;;;;;;;5053980;28;20934;-81
2023/04/27 05:17:19;;;;;;;11.55;8.73;;;;;;;;;;5054747;28;20436;-81
2023/04/27 05:19:46;;;;;;;13.10;8.13;;;;;;;;;;5054430;28;20420;-81
2023/04/27 05:22:14;;;;;;;14.93;9.32;;;;;;;;;;5036987;28;20457;-81
2023/04/27 05:24:42;;;;;;;11.68;8.50;;;;;;;;;;5054653;28;20859;-82
2023/04/27 05:27:08;;;;;;;12.20;8.38;;;;;;;;;;5055032;28;20905;-81
2023/04/27 05:29:35;;;;;;;14.90;9.63;;;;;;;;;;5051505;28;20799;-83
2023/04/27 05:32:01;;;;;;;12.43;9.25;;;;;;;;;;5051255;28;20417;-82
2023/04/27 05:34:28;;;;;;;11.88;9.05;;;;;;;;;;5053674;28;20985;-82
2023/04/27 05:36:54;;;;;;;14.70;9.40;;;;;;;;;;5050344;28;20891;-81
2023/04/27 05:39:20;;;;;;;13.52;8.82;;;;;;;;;;5052482;28;20433;-80
2023/04/27 05:41:48;;;;;;;14.25;9.57;;;;;;;;;;5047579;28;20942;-80
2023/04/27 05:44:15;;;;;;;14.60;9.40;;;;;;;;;;5051269;28;20409;-80
2023/04/27 05:46:41;;;;;;;17.45;10.70;;;;;;;;;;5053545;28;20417;-80
2023/04/27 05:49:07;;;;;;;17.35;10.13;;;;;;;;;;5051606;28;20787;-79
2023/04/27 05:51:34;;;;;;;12.82;9.60;;;;;;;;;;5052930;28;20752;-79
2023/04/27 05:54:01;;;;;;;14.48;9.27;;;;;;;;;;5052524;28;20428;-79
2023/04/27 05:56:27;;;;;;;13.00;8.82;;;;;;;;;;5051908;28;20914;-79
2023/04/27 05:58:55;;;;;;;17.10;9.50;;;;;;;;;;5041679;28;20411;-79
2023/04/27 06:01:22;;;;;;;12.23;8.43;;;;;;;;;;5051200;28;20433;-79
2023/04/27 06:03:48;;;;;;;14.45;9.15;;;;;;;;;;5050867;28;20467;-79
2023/04/27 06:06:15;;;;;;;15.90;8.90;;;;;;;;;;5052769;28;20418;-80
2023/04/27 06:08:41;;;;;;;14.23;8.23;;;;;;;;;;5052071;28;20428;-80
2023/04/27 06:11:07;;;;;;;14.15;8.80;;;;;;;;;;5052604;28;20432;-78
2023/04/27 06:13:34;;;;;;;12.40;8.50;;;;;;;;;;5051636;28;20413;-80
2023/04/27 06:16:05;;;;;;;13.05;8.57;;;;;;;;;;5049050;28;20496;-80
2023/04/27 06:18:32;;;;;;;13.20;8.60;;;;;;;;;;5052229;28;20424;-80
2023/04/27 06:20:58;;;;;;;12.63;7.88;;;;;;;;;;5049720;28;20413;-80
2023/04/27 06:23:25;;;;;;;13.20;8.82;;;;;;;;;;5051778;28;20409;-80
2023/04/27 06:25:51;;;;;;;12.60;8.73;;;;;;;;;;5051029;28;20780;-80
2023/04/27 06:28:18;;;;;;;11.23;7.40;;;;;;;;;;5052041;28;20418;-80
2023/04/27 06:30:45;;;;;;;13.63;7.07;;;;;;;;;;5058512;28;20417;-80
2023/04/27 06:33:12;;;;;;;11.10;7.30;;;;;;;;;;5050764;28;20459;-80
2023/04/27 06:35:39;;;;;;;10.82;7.68;;;;;;;;;;5051913;28;20425;-80
2023/04/27 06:38:05;;;;;;;12.00;7.40;;;;;;;;;;5052524;28;20409;-80
2023/04/27 06:40:31;;;;;;;12.45;7.95;;;;;;;;;;5052694;28;20409;-80
2023/04/27 06:42:58;;;;;;;13.38;7.03;;;;;;;;;;5052188;28;20429;-80
2023/04/27 06:45:24;;;;;;;8.85;7.00;;;;;;;;;;5067359;28;20417;-79
2023/04/27 06:47:51;;;;;;;10.13;7.30;;;;;;;;;;5051568;28;20431;-80
2023/04/27 06:50:19;;;;;;;12.88;7.40;;;;;;;;;;5048742;28;20421;-78
2023/04/27 06:52:45;;;;;;;10.40;7.03;;;;;;;;;;5052260;28;20964;-80
2023/04/27 06:55:12;;;;;;;13.25;7.32;;;;;;;;;;5049717;28;20782;-81
2023/04/27 06:57:38;;;;;;;11.67;6.80;;;;;;;;;;5052225;28;20892;-80
2023/04/27 07:00:06;;;;;;;11.23;6.55;;;;;;;;;;5051234;28;20910;-79
2023/04/27 07:02:32;;;;;;;8.90;6.60;;;;;;;;;;5045556;28;20414;-80
2023/04/27 07:05:00;;;;;;;9.32;6.35;;;;;;;;;;5047883;28;20413;-80
2023/04/27 07:07:27;;;;;;;8.00;6.00;;;;;;;;;;5044806;28;20419;-78
2023/04/27 07:09:54;;;;;;;9.15;5.72;;;;;;;;;;5051660;28;20412;-80
2023/04/27 07:12:20;;;;;;;6.57;5.20;;;;;;;;;;5051215;28;20492;-80
2023/04/27 07:14:49;;;;;;;7.17;5.70;;;;;;;;;;5051516;28;20592;-78
2023/04/27 07:17:16;;;;;;;8.50;5.33;;;;;;;;;;5066140;28;20429;-78
2023/04/27 07:19:42;;;;;;;8.50;5.95;;;;;;;;;;5050793;28;20914;-79
2023/04/27 07:22:09;;;;;;;11.00;5.82;;;;;;;;;;5049945;28;20417;-80
2023/04/27 07:24:36;;;;;;;8.87;5.40;;;;;;;;;;5051537;28;20421;-80
2023/04/27 07:27:03;;;;;;;7.10;5.30;;;;;;;;;;5047058;28;20421;-80
2023/04/27 07:29:29;;;;;;;8.00;4.72;;;;;;;;;;5051342;28;20417;-80
2023/04/27 07:31:56;;;;;;;6.40;4.50;;;;;;;;;;5046789;28;20405;-79
2023/04/27 07:34:22;;;;;;;6.47;4.68;;;;;;;;;;5048720;28;20732;-78
2023/04/27 07:36:49;;;;;;;6.10;4.72;;;;;;;;;;5050803;28;20417;-78
2023/04/27 07:39:15;;;;;;;6.93;4.70;;;;;;;;;;5055647;28;20417;-78
2023/04/27 07:41:43;;;;;;;5.40;3.70;;;;;;;;;;5050683;28;20413;-78
2023/04/27 07:44:11;;;;;;;7.80;4.30;;;;;;;;;;5048356;28;20914;-78
2023/04/27 07:46:37;;;;;;;6.95;4.45;;;;;;;;;;5045105;28;20587;-78
2023/04/27 07:49:04;;;;;;;4.70;3.77;;;;;;;;;;5051031;28;20425;-78
2023/04/27 07:51:30;;;;;;;6.47;3.50;;;;;;;;;;5050863;28;20414;-80
2023/04/27 07:53:57;;;;;;;6.85;3.90;;;;;;;;;;5066126;28;20436;-79
2023/04/27 07:56:23;;;;;;;6.40;3.78;;;;;;;;;;5053075;28;20412;-79
2023/04/27 07:58:51;;;;;;;5.70;3.67;;;;;;;;;;5050694;28;20418;-79
2023/04/27 08:01:17;;;;;;;4.70;3.55;;;;;;;;;;5049776;28;20424;-79
2023/04/27 08:03:44;;;;;;;5.53;3.90;;;;;;;;;;5051238;28;20423;-79
2023/04/27 08:06:10;;;;;;;8.02;3.90;;;;;;;;;;5050277;28;20413;-80
2023/04/27 08:08:37;;;;;;;7.47;4.00;;;;;;;;;;5054561;28;20921;-79
2023/04/27 08:11:03;;;;;;;4.70;3.58;;;;;;;;;;5054528;28;20416;-78
2023/04/27 08:13:33;;;;;;;7.47;3.33;;;;;;;;;;5053292;28;20420;-79
2023/04/27 08:16:01;;;;;;;6.45;3.83;;;;;;;;;;5054117;28;20832;-80
2023/04/27 08:18:27;;;;;;;6.40;4.10;;;;;;;;;;5052088;28;20417;-79
2023/04/27 08:20:55;;;;;;;6.88;4.00;;;;;;;;;;5054427;28;20412;-78
2023/04/27 08:23:21;;;;;;;6.20;3.50;;;;;;;;;;5054735;28;20433;-80
2023/04/27 08:25:48;;;;;;;8.85;3.50;;;;;;;;;;5051764;28;20476;-80
2023/04/27 08:28:15;;;;;;;4.30;3.90;;;;;;;;;;5054946;28;20409;-80
2023/04/27 08:30:42;;;;;;;6.38;3.70;;;;;;;;;;5054534;28;20405;-80
2023/04/27 08:33:10;;;;;;;4.20;3.50;;;;;;;;;;5053767;28;20417;-80
2023/04/27 08:35:37;;;;;;;5.90;3.83;;;;;;;;;;5054451;28;20449;-80
2023/04/27 08:38:03;;;;;;;5.95;4.10;;;;;;;;;;5054105;28;20922;-80
2023/04/27 08:40:29;;;;;;;6.63;4.20;;;;;;;;;;5056385;28;20416;-80
2023/04/27 08:42:56;;;;;;;4.57;4.05;;;;;;;;;;5054133;28;20428;-80
2023/04/27 08:45:23;;;;;;;6.38;3.85;;;;;;;;;;5039896;28;20791;-80
2023/04/27 08:47:51;;;;;;;6.20;3.80;;;;;;;;;;5052337;28;20417;-80
2023/04/27 08:50:19;;;;;;;3.60;3.30;;;;;;;;;;5055014;28;20466;-80
2023/04/27 08:52:45;;;;;;;4.30;3.70;;;;;;;;;;5053698;28;20413;-80
2023/04/27 08:55:12;;;;;;;4.55;3.25;;;;;;;;;;5051528;28;20421;-80
2023/04/27 08:57:38;;;;;;;6.82;3.80;;;;;;;;;;5041541;28;20413;-80
2023/04/27 09:00:12;;;;;;;4.77;3.80;;;;;;;;;;5052424;28;20472;-80
2023/04/27 09:02:44;;;;;;;5.57;3.80;;;;;;;;;;5053519;28;20538;-80
2023/04/27 09:05:15;;;;;;;7.65;4.10;;;;;;;;;;5050897;28;20769;-80
2023/04/27 09:07:43;;;;;;;5.28;3.40;;;;;;;;;;5052728;28;20463;-80
2023/04/27 09:10:11;;;;;;;6.97;4.32;;;;;;;;;;5054435;28;20428;-80
2023/04/27 09:12:39;;;;;;;6.65;3.75;;;;;;;;;;5053238;28;20420;-80
2023/04/27 09:15:07;;;;;;;5.72;3.70;;;;;;;;;;5054045;28;20425;-80
2023/04/27 09:17:37;;;;;;;9.40;3.90;;;;;;;;;;5052645;28;20420;-80
2023/04/27 09:20:07;;;;;;;8.15;4.20;;;;;;;;;;5049570;28;20403;-80
2023/04/27 09:22:43;;;;;;;4.85;3.42;;;;;;;;;;5049183;28;20430;-79
2023/04/27 09:25:09;;;;;;;6.25;3.85;;;;;;;;;;5052963;28;20409;-80
2023/04/27 09:27:37;;;;;;;6.10;3.60;;;;;;;;;;5052558;28;20444;-80
2023/04/27 09:30:12;;;;;;;7.32;4.15;;;;;;;;;;5049267;28;20429;-80
2023/04/27 09:32:38;;;;;;;4.95;3.50;;;;;;;;;;5037544;28;20978;-80
2023/04/27 09:35:13;;;;;;;6.72;3.50;;;;;;;;;;5052461;28;20437;-80
2023/04/27 09:37:39;;;;;;;4.90;3.60;;;;;;;;;;5052187;28;20923;-80
2023/04/27 09:40:09;;;;;;;5.43;3.80;;;;;;;;;;5053545;28;20433;-80
2023/04/27 09:42:35;;;;;;;5.97;3.97;;;;;;;;;;5052576;28;20421;-80
2023/04/27 09:45:04;;;;;;;4.70;4.00;;;;;;;;;;5052735;28;20413;-80
2023/04/27 09:47:30;;;;;;;8.40;3.85;;;;;;;;;;5048528;28;20417;-79
2023/04/27 09:50:00;;;;;;;5.68;3.97;;;;;;;;;;5053389;28;20775;-80
2023/04/27 09:52:26;;;;;;;7.07;3.75;;;;;;;;;;5067717;28;20414;-80
2023/04/27 09:54:53;;;;;;;5.57;3.67;;;;;;;;;;5048875;28;20555;-80
2023/04/27 09:57:26;;;;;;;5.70;4.10;;;;;;;;;;5051417;28;20414;-80
2023/04/27 10:00:00;;;;;;;4.15;3.45;;;;;;;;;;5052081;28;20409;-80
2023/04/27 10:02:29;;;;;;;7.20;4.20;;;;;;;;;;5051523;28;20426;-80
2023/04/27 10:05:08;;;;;;;5.10;3.63;;;;;;;;;;5052935;28;20409;-80
2023/04/27 10:07:35;;;;;;;6.40;3.77;;;;;;;;;;5066892;28;20501;-80
2023/04/27 10:10:02;;;;;;;4.40;4.00;;;;;;;;;;5052147;28;20440;-80
2023/04/27 10:12:35;;;;;;;5.55;3.72;;;;;;;;;;5052451;28;20409;-79
2023/04/27 10:15:11;;;;;;;6.68;4.05;;;;;;;;;;5047062;28;20433;-80
2023/04/27 10:17:38;;;;;;;6.32;4.30;;;;;;;;;;5051855;28;20413;-80
2023/04/27 10:20:07;;;;;;;5.73;4.10;;;;;;;;;;5049889;28;20855;-80
2023/04/27 10:22:38;;;;;;;6.10;4.50;;;;;;;;;;5051751;28;20425;-80
2023/04/27 10:25:12;;;;;;;6.13;4.10;;;;;;;;;;5050226;28;20429;-80
2023/04/27 10:27:40;;;;;;;7.30;4.40;;;;;;;;;;5049225;28;20417;-80
2023/04/27 10:30:08;;;;;;;7.15;4.38;;;;;;;;;;5050675;28;20830;-80
2023/04/27 10:32:36;;;;;;;5.13;3.90;;;;;;;;;;5052044;28;20509;-80
2023/04/27 10:35:05;;;;;;;7.18;4.30;;;;;;;;;;5052469;28;20413;-80
2023/04/27 10:37:38;;;;;;;6.25;4.45;;;;;;;;;;5051920;28;20414;-79
2023/04/27 10:40:07;;;;;;;7.07;4.97;;;;;;;;;;5052299;28;20410;-80
2023/04/27 10:42:33;;;;;;;7.38;4.25;;;;;;;;;;5050118;28;20428;-80
2023/04/27 10:45:01;;;;;;;5.60;4.70;;;;;;;;;;5051741;28;20437;-80
2023/04/27 10:47:36;;;;;;;5.70;5.10;;;;;;;;;;5049723;28;20418;-80
2023/04/27 10:50:03;;;;;;;6.25;4.60;;;;;;;;;;5052172;28;20918;-80
2023/04/27 10:52:29;;;;;;;5.45;4.50;;;;;;;;;;5045652;28;20864;-80
2023/04/27 10:54:55;;;;;;;6.13;5.05;;;;;;;;;;5048597;28;20417;-80
2023/04/27 10:57:22;;;;;;;8.23;5.00;;;;;;;;;;5049422;28;20409;-80
2023/04/27 10:59:49;;;;;;;6.00;5.20;;;;;;;;;;5051772;28;20460;-79
2023/04/27 11:02:18;;;;;;;6.05;4.85;;;;;;;;;;5051476;28;20417;-80
2023/04/27 11:04:44;;;;;;;6.28;4.80;;;;;;;;;;5051903;28;20449;-80
2023/04/27 11:07:11;;;;;;;7.40;5.03;;;;;;;;;;5051571;28;20428;-80
2023/04/27 11:09:37;;;;;;;6.20;5.15;;;;;;;;;;5050537;28;20420;-80
2023/04/27 11:12:06;;;;;;;10.53;5.10;;;;;;;;;;5051500;28;20409;-80
2023/04/27 11:14:32;;;;;;;5.93;4.60;;;;;;;;;;5051536;28;20895;-80
2023/04/27 11:16:59;;;;;;;7.93;5.15;;;;;;;;;;5049833;28;20413;-80
2023/04/27 11:19:29;;;;;;;9.40;5.43;;;;;;;;;;5051146;28;20409;-80
2023/04/27 11:22:02;;;;;;;6.07;4.97;;;;;;;;;;5045611;28;20418;-80
2023/04/27 11:24:28;;;;;;;6.40;5.40;;;;;;;;;;5051491;28;20432;-80
2023/04/27 11:26:55;;;;;;;8.77;4.88;;;;;;;;;;5050700;28;20973;-80
2023/04/27 11:29:21;;;;;;;7.10;4.90;;;;;;;;;;5051303;28;20444;-80
2023/04/27 11:31:50;;;;;;;6.45;5.25;;;;;;;;;;5051130;28;20496;-80
2023/04/27 11:34:17;;;;;;;11.85;5.43;;;;;;;;;;5048107;28;20428;-80
2023/04/27 11:36:45;;;;;;;7.28;5.32;;;;;;;;;;5048629;28;20907;-80
2023/04/27 11:39:17;;;;;;;7.50;4.82;;;;;;;;;;5051800;28;20409;-79
2023/04/27 11:41:45;;;;;;;7.45;5.00;;;;;;;;;;5052262;28;20421;-79
2023/04/27 11:44:12;;;;;;;6.97;5.53;;;;;;;;;;5054608;28;20768;-79
2023/04/27 11:46:39;;;;;;;7.55;5.35;;;;;;;;;;5055075;28;20417;-80
2023/04/27 11:49:07;;;;;;;6.30;5.03;;;;;;;;;;5031596;28;20420;-80
2023/04/27 11:51:34;;;;;;;6.63;5.05;;;;;;;;;;5054419;28;20473;-80
2023/04/27 11:54:03;;;;;;;6.85;4.88;;;;;;;;;;5053380;28;20495;-80
2023/04/27 11:56:36;;;;;;;6.70;4.20;;;;;;;;;;5054641;28;20405;-80
2023/04/27 11:59:03;;;;;;;6.07;4.15;;;;;;;;;;5058969;28;20972;-79
2023/04/27 12:01:30;;;;;;;5.30;4.55;;;;;;;;;;5050141;28;20405;-80
2023/04/27 12:03:57;;;;;;;6.47;4.40;;;;;;;;;;5055529;28;20806;-79
2023/04/27 12:06:27;;;;;;;5.85;4.80;;;;;;;;;;5052769;28;20471;-80
2023/04/27 12:08:54;;;;;;;4.95;4.50;;;;;;;;;;5046217;28;20921;-80
2023/04/27 12:11:22;;;;;;;6.60;4.82;;;;;;;;;;5054669;28;20412;-80
2023/04/27 12:13:48;;;;;;;6.75;4.72;;;;;;;;;;5051793;28;20401;-80
2023/04/27 12:16:15;;;;;;;6.67;5.00;;;;;;;;;;5053743;28;20906;-80
2023/04/27 12:18:41;;;;;;;6.07;4.60;;;;;;;;;;5055156;28;20413;-80
2023/04/27 12:21:09;;;;;;;6.30;5.05;;;;;;;;;;5052427;28;20405;-80
2023/04/27 12:23:35;;;;;;;5.75;4.70;;;;;;;;;;5054599;28;20433;-80
2023/04/27 12:26:02;;;;;;;6.95;4.75;;;;;;;;;;5054979;28;20453;-80
2023/04/27 12:28:30;;;;;;;5.90;4.72;;;;;;;;;;5054859;28;20409;-80
2023/04/27 12:30:56;;;;;;;6.35;5.10;;;;;;;;;;5053914;28;20425;-80
2023/04/27 12:33:22;;;;;;;6.25;5.10;;;;;;;;;;5054168;28;20467;-80
2023/04/27 12:35:49;;;;;;;8.20;5.40;;;;;;;;;;5053900;28;20782;-81
2023/04/27 12:38:15;;;;;;;5.65;5.05;;;;;;;;;;5054730;28;20412;-80
2023/04/27 12:40:42;;;;;;;6.07;5.27;;;;;;;;;;5054841;28;20421;-80
2023/04/27 12:43:08;;;;;;;7.00;5.30;;;;;;;;;;5053779;28;20424;-79
2023/04/27 12:45:36;;;;;;;6.70;5.70;;;;;;;;;;5053953;28;20791;-80
2023/04/27 12:48:03;;;;;;;6.10;5.60;;;;;;;;;;5053680;28;20421;-80
2023/04/27 12:50:30;;;;;;;7.10;5.38;;;;;;;;;;5054256;28;20420;-80
2023/04/27 12:52:56;;;;;;;6.20;4.85;;;;;;;;;;5046430;28;20419;-80
2023/04/27 12:55:23;;;;;;;6.30;5.80;;;;;;;;;;5054163;28;20424;-80
2023/04/27 12:57:49;;;;;;;7.07;5.85;;;;;;;;;;5053542;28;20420;-79
2023/04/27 13:00:16;;;;;;;6.30;5.65;;;;;;;;;;5069019;28;20972;-79
2023/04/27 13:02:44;;;;;;;6.78;6.00;;;;;;;;;;5053386;28;20463;-79
2023/04/27 13:05:11;;;;;;;5.93;5.33;;;;;;;;;;5069472;28;20467;-80
2023/04/27 13:07:38;;;;;;;9.25;6.35;;;;;;;;;;5050439;28;20413;-80
2023/04/27 13:10:04;;;;;;;6.57;5.47;;;;;;;;;;5053722;28;20466;-80
2023/04/27 13:12:31;;;;;;;6.78;6.07;;;;;;;;;;5053064;28;20432;-80
2023/04/27 13:14:57;;;;;;;7.05;6.28;;;;;;;;;;5053716;28;20421;-80
2023/04/27 13:17:24;;;;;;;8.00;5.95;;;;;;;;;;5053825;28;20413;-79
2023/04/27 13:19:54;;;;;;;8.75;6.00;;;;;;;;;;5050835;28;20496;-80
2023/04/27 13:22:20;;;;;;;6.37;5.73;;;;;;;;;;5053413;28;20528;-80
2023/04/27 13:24:47;;;;;;;6.53;5.82;;;;;;;;;;5050344;28;20973;-80
2023/04/27 13:27:15;;;;;;;7.63;5.75;;;;;;;;;;5054607;28;20418;-81
2023/04/27 13:29:42;;;;;;;6.80;6.07;;;;;;;;;;5054105;28;20425;-79
2023/04/27 13:32:08;;;;;;;6.50;5.80;;;;;;;;;;5053342;28;21099;-79
2023/04/27 13:34:35;;;;;;;7.75;6.20;;;;;;;;;;5053748;28;20436;-79
2023/04/27 13:37:03;;;;;;;9.52;7.00;;;;;;;;;;5052578;28;20429;-79
2023/04/27 13:39:29;;;;;;;10.60;6.30;;;;;;;;;;5052908;28;20513;-79
2023/04/27 13:41:56;;;;;;;6.68;5.65;;;;;;;;;;5052825;28;20413;-80
2023/04/27 13:44:22;;;;;;;8.40;6.68;;;;;;;;;;5052501;28;20428;-80
2023/04/27 13:46:49;;;;;;;6.28;5.47;;;;;;;;;;5050415;28;20413;-80
2023/04/27 13:49:15;;;;;;;7.30;6.10;;;;;;;;;;5049643;28;20891;-79
2023/04/27 13:51:41;;;;;;;7.03;6.10;;;;;;;;;;5052198;28;20421;-79
2023/04/27 13:54:09;;;;;;;7.32;6.15;;;;;;;;;;5056836;28;20498;-79
2023/04/27 13:56:36;;;;;;;7.80;6.15;;;;;;;;;;5049145;28;20487;-81
2023/04/27 13:59:03;;;;;;;7.40;5.85;;;;;;;;;;5052985;28;20429;-81
2023/04/27 14:01:29;;;;;;;8.65;6.25;;;;;;;;;;5052599;28;20472;-80
2023/04/27 14:03:56;;;;;;;7.30;6.20;;;;;;;;;;5044676;28;20789;-80
2023/04/27 14:06:22;;;;;;;6.75;6.00;;;;;;;;;;5051990;28;20409;-80
2023/04/27 14:08:49;;;;;;;8.90;6.03;;;;;;;;;;5052987;28;20449;-80
2023/04/27 14:11:17;;;;;;;9.88;6.60;;;;;;;;;;5052322;28;20413;-81
2023/04/27 14:13:45;;;;;;;7.00;6.30;;;;;;;;;;5052598;28;20413;-80
2023/04/27 14:16:11;;;;;;;7.80;6.35;;;;;;;;;;5051430;28;20435;-81
2023/04/27 14:18:38;;;;;;;7.20;6.50;;;;;;;;;;5052621;28;20417;-81
2023/04/27 14:21:04;;;;;;;8.18;6.50;;;;;;;;;;5052147;28;20413;-81
2023/04/27 14:23:31;;;;;;;8.40;6.60;;;;;;;;;;5051551;28;20421;-80
2023/04/27 14:25:57;;;;;;;8.57;6.80;;;;;;;;;;5046362;28;20425;-81
2023/04/27 14:28:25;;;;;;;7.80;5.60;;;;;;;;;;5050961;28;21008;-80
2023/04/27 14:30:54;;;;;;;6.82;6.00;;;;;;;;;;5051788;28;20421;-81
2023/04/27 14:33:20;;;;;;;6.93;6.00;;;;;;;;;;5051893;28;20425;-80
2023/04/27 14:35:47;;;;;;;7.80;6.22;;;;;;;;;;5051048;28;20413;-80
2023/04/27 14:38:13;;;;;;;8.05;6.50;;;;;;;;;;5050329;28;20405;-79